createdAt,value
2023-04-26T00:02:21.940Z,5.24
2023-04-26T00:07:25.445Z,5.23
2023-04-26T00:12:27.795Z,5.16
2023-04-26T00:17:29.800Z,5.18
2023-04-26T00:22:33.130Z,5.22
2023-04-26T00:27:35.185Z,5.14
2023-04-26T00:32:37.213Z,5.18
2023-04-26T00:37:41.527Z,5.10
2023-04-26T00:42:43.469Z,5.04
2023-04-26T00:47:45.577Z,4.96
2023-04-26T00:52:49.801Z,4.98
2023-04-26T00:57:52.087Z,4.89
2023-04-26T01:02:54.232Z,4.90
2023-04-26T01:07:59.731Z,4.89
2023-04-26T01:13:03.431Z,4.84
2023-04-26T01:18:05.954Z,4.79
2023-04-26T01:23:09.286Z,4.70
2023-04-26T01:28:11.497Z,4.71
2023-04-26T01:33:15.399Z,4.58
2023-04-26T01:38:20.074Z,4.60
2023-04-26T01:43:22.995Z,4.58
2023-04-26T01:48:25.045Z,4.39
2023-04-26T01:53:28.321Z,4.35
2023-04-26T01:58:30.395Z,4.25
2023-04-26T02:03:32.378Z,4.13
2023-04-26T02:08:36.079Z,4.05
2023-04-26T02:13:38.195Z,3.97
2023-04-26T02:18:41.513Z,3.76
2023-04-26T02:23:44.925Z,3.70
2023-04-26T02:28:46.868Z,3.57
2023-04-26T02:33:48.789Z,3.51
2023-04-26T02:38:52.694Z,3.44
2023-04-26T02:43:54.832Z,3.37
2023-04-26T02:48:57.057Z,3.28
2023-04-26T02:54:00.453Z,3.12
2023-04-26T02:59:02.405Z,3.00
2023-04-26T03:04:05.011Z,3.02
2023-04-26T03:09:08.753Z,3.13
2023-04-26T03:14:10.695Z,3.10
2023-04-26T03:19:12.631Z,3.10
2023-04-26T03:24:15.924Z,2.82
2023-04-26T03:29:17.872Z,2.65
2023-04-26T03:34:19.852Z,2.53
2023-04-26T03:39:23.160Z,2.40
2023-04-26T03:44:25.115Z,2.32
2023-04-26T03:49:27.058Z,2.33
2023-04-26T03:54:30.306Z,2.42
2023-04-26T03:59:32.820Z,2.50
2023-04-26T04:04:34.963Z,2.52
2023-04-26T04:09:38.319Z,2.65
2023-04-26T04:14:40.348Z,2.70
2023-04-26T04:19:42.292Z,2.78
2023-04-26T04:24:47.368Z,2.79
2023-04-26T04:29:49.336Z,3.18
2023-04-26T04:34:53.829Z,3.34
2023-04-26T04:39:57.359Z,3.22
2023-04-26T04:44:59.706Z,3.03
2023-04-26T04:50:01.959Z,2.98
2023-04-26T04:55:06.286Z,2.87
2023-04-26T05:00:10.509Z,2.89
2023-04-26T05:05:12.799Z,3.03
2023-04-26T05:10:16.233Z,3.32
2023-04-26T05:15:18.322Z,3.65
2023-04-26T05:20:20.593Z,3.97
2023-04-26T05:25:23.916Z,3.95
2023-04-26T05:30:26.401Z,3.96
2023-04-26T05:35:28.885Z,3.96
2023-04-26T05:40:32.375Z,3.97
2023-04-26T05:45:34.404Z,3.94
2023-04-26T05:50:37.274Z,3.95
2023-04-26T05:55:42.624Z,4.15
2023-04-26T06:00:44.685Z,4.25
2023-04-26T06:05:46.793Z,4.39
2023-04-26T06:10:50.246Z,4.57
2023-04-26T06:15:53.388Z,4.67
2023-04-26T06:20:55.362Z,4.75
2023-04-26T06:25:58.623Z,4.76
2023-04-26T06:31:00.634Z,4.82
2023-04-26T06:36:02.786Z,4.95
2023-04-26T06:41:06.237Z,4.98
2023-04-26T06:46:08.232Z,5.19
2023-04-26T06:51:10.271Z,5.48
2023-04-26T06:56:13.570Z,5.42
2023-04-26T07:01:15.682Z,5.38
2023-04-26T07:06:17.689Z,5.66
2023-04-26T07:11:22.835Z,5.69
2023-04-26T07:16:27.455Z,5.59
2023-04-26T07:21:29.532Z,5.61
2023-04-26T07:26:32.970Z,5.87
2023-04-26T07:31:35.836Z,6.29
2023-04-26T07:36:37.972Z,5.76
2023-04-26T07:41:43.296Z,6.04
2023-04-26T07:46:46.058Z,6.15
2023-04-26T07:51:51.100Z,6.74
2023-04-26T07:56:55.437Z,6.33
2023-04-26T08:01:57.659Z,6.96
2023-04-26T08:07:01.570Z,6.50
2023-04-26T08:12:06.338Z,6.18
2023-04-26T08:17:12.153Z,6.04
2023-04-26T08:22:14.175Z,5.61
2023-04-26T08:27:19.058Z,5.10
2023-04-26T08:32:21.391Z,5.11
2023-04-26T08:37:23.430Z,5.46
2023-04-26T08:42:28.316Z,6.77
2023-04-26T08:47:39.862Z,6.35
2023-04-26T08:52:42.934Z,6.49
2023-04-26T08:57:48.559Z,6.77
2023-04-26T09:02:53.548Z,6.49
2023-04-26T09:07:57.524Z,6.30
2023-04-26T09:13:01.004Z,6.30
2023-04-26T09:18:19.386Z,5.96
2023-04-26T09:23:21.540Z,5.46
2023-04-26T09:28:25.817Z,5.62
2023-04-26T09:33:27.754Z,6.38
2023-04-26T09:38:29.908Z,6.86
2023-04-26T09:43:37.541Z,7.00
2023-04-26T09:48:39.529Z,6.53
2023-04-26T09:53:46.477Z,8.09
2023-04-26T09:59:01.236Z,8.58
2023-04-26T10:04:04.674Z,7.66
2023-04-26T10:09:09.188Z,7.28
2023-04-26T10:14:12.553Z,6.15
2023-04-26T10:19:14.484Z,5.90
2023-04-26T10:24:16.689Z,6.03
2023-04-26T10:29:20.954Z,6.17
2023-04-26T10:34:23.017Z,7.14
2023-04-26T10:39:28.054Z,7.91
2023-04-26T10:44:42.218Z,8.36
2023-04-26T10:49:48.559Z,7.70
2023-04-26T10:54:55.792Z,7.60
2023-04-26T11:00:20.833Z,7.81
2023-04-26T11:05:44.187Z,7.89
2023-04-26T11:10:52.025Z,7.42
2023-04-26T11:16:00.299Z,7.82
2023-04-26T11:21:03.029Z,7.49
2023-04-26T11:26:06.577Z,7.25
2023-04-26T11:31:09.885Z,7.47
2023-04-26T11:36:11.917Z,7.45
2023-04-26T11:41:14.045Z,7.73
2023-04-26T11:46:21.368Z,7.89
2023-04-26T11:51:24.006Z,7.39
2023-04-26T11:56:26.002Z,7.36
2023-04-26T12:01:30.075Z,7.82
2023-04-26T12:06:41.669Z,7.34
2023-04-26T12:11:48.484Z,6.88
2023-04-26T12:16:53.053Z,7.22
2023-04-26T12:21:55.920Z,8.19
2023-04-26T12:27:00.199Z,8.58
2023-04-26T12:32:04.640Z,8.05
2023-04-26T12:37:06.830Z,7.79
2023-04-26T12:42:08.801Z,7.95
2023-04-26T12:47:12.107Z,7.81
2023-04-26T12:52:14.214Z,7.72
2023-04-26T12:57:16.392Z,7.74
2023-04-26T13:02:19.873Z,8.18
2023-04-26T13:07:22.241Z,8.15
2023-04-26T13:12:24.488Z,7.71
2023-04-26T13:17:28.232Z,7.41
2023-04-26T13:22:30.255Z,7.47
2023-04-26T13:27:32.289Z,7.61
2023-04-26T13:32:36.005Z,8.05
2023-04-26T13:37:38.240Z,8.18
2023-04-26T13:42:41.777Z,8.15
2023-04-26T13:47:45.130Z,7.80
2023-04-26T13:52:48.494Z,7.76
2023-04-26T13:57:50.492Z,8.39
2023-04-26T14:02:54.345Z,8.58
2023-04-26T14:07:57.183Z,8.29
2023-04-26T14:12:59.143Z,8.18
2023-04-26T14:18:02.470Z,8.20
2023-04-26T14:23:04.624Z,8.10
2023-04-26T14:28:08.264Z,7.92
2023-04-26T14:33:11.601Z,7.89
2023-04-26T14:38:13.879Z,7.99
2023-04-26T14:43:16.156Z,7.81
2023-04-26T14:48:19.666Z,7.77
2023-04-26T14:53:21.809Z,7.57
2023-04-26T14:58:24.438Z,7.66
2023-04-26T15:03:28.233Z,7.84
2023-04-26T15:08:30.400Z,8.16
2023-04-26T15:13:32.406Z,8.25
2023-04-26T15:18:35.751Z,8.18
2023-04-26T15:23:37.999Z,8.17
2023-04-26T15:28:40.722Z,8.19
2023-04-26T15:33:44.302Z,7.75
2023-04-26T15:38:48.416Z,7.59
2023-04-26T15:43:54.869Z,7.69
2023-04-26T15:48:58.197Z,7.74
2023-04-26T15:54:00.348Z,8.00
2023-04-26T15:59:03.001Z,7.91
2023-04-26T16:04:06.843Z,7.80
2023-04-26T16:09:23.862Z,7.51
2023-04-26T16:14:27.113Z,7.18
2023-04-26T16:19:30.555Z,7.05
2023-04-26T16:24:32.402Z,7.10
2023-04-26T16:29:34.345Z,7.21
2023-04-26T16:34:37.656Z,8.26
2023-04-26T16:39:39.628Z,7.92
2023-04-26T16:44:41.967Z,8.02
2023-04-26T16:49:45.810Z,8.31
2023-04-26T16:54:47.814Z,7.71
2023-04-26T16:59:49.928Z,7.47
2023-04-26T17:04:53.535Z,7.26
2023-04-26T17:09:55.896Z,6.91
2023-04-26T17:14:57.876Z,6.76
2023-04-26T17:20:01.201Z,6.71
2023-04-26T17:25:04.880Z,6.65
2023-04-26T17:30:08.326Z,6.51
2023-04-26T17:35:11.777Z,6.35
2023-04-26T17:40:13.626Z,6.14
2023-04-26T17:45:15.733Z,5.73
2023-04-26T17:50:21.140Z,5.47
2023-04-26T17:55:23.264Z,5.34
2023-04-26T18:00:25.551Z,5.09
2023-04-26T18:05:29.277Z,4.93
2023-04-26T18:10:31.792Z,4.87
2023-04-26T18:15:33.817Z,4.66
2023-04-26T18:20:37.465Z,4.40
2023-04-26T18:25:39.534Z,4.36
2023-04-26T18:30:41.702Z,4.02
2023-04-26T18:35:45.029Z,3.74
2023-04-26T18:40:50.815Z,3.54
2023-04-26T18:45:53.033Z,3.29
2023-04-26T18:50:56.847Z,2.81
2023-04-26T18:55:58.999Z,2.49
2023-04-26T19:01:01.076Z,2.24
2023-04-26T19:06:09.202Z,2.04
2023-04-26T19:11:12.314Z,1.84
2023-04-26T19:16:14.331Z,1.68
2023-04-26T19:21:17.743Z,1.50
2023-04-26T19:26:19.710Z,1.41
2023-04-26T19:31:21.739Z,1.40
2023-04-26T19:36:25.420Z,1.34
2023-04-26T19:41:27.409Z,1.20
2023-04-26T19:46:29.412Z,1.17
2023-04-26T19:51:32.988Z,1.17
2023-04-26T19:56:34.962Z,1.04
2023-04-26T20:01:37.036Z,0.89
2023-04-26T20:06:40.484Z,0.83
2023-04-26T20:11:42.520Z,0.67
2023-04-26T20:16:44.606Z,0.57
2023-04-26T20:21:47.964Z,0.44
2023-04-26T20:26:50.063Z,0.34
2023-04-26T20:31:52.367Z,0.33
2023-04-26T20:36:55.931Z,0.30
2023-04-26T20:41:57.860Z,0.27
2023-04-26T20:46:59.890Z,0.11
2023-04-26T20:52:03.492Z,0.09
2023-04-26T20:57:05.800Z,0.06
2023-04-26T21:02:07.965Z,-0.14
2023-04-26T21:07:11.350Z,-0.16
2023-04-26T21:12:13.332Z,-0.18
2023-04-26T21:17:15.552Z,-0.31
2023-04-26T21:22:18.865Z,-0.41
2023-04-26T21:27:20.876Z,-0.30
2023-04-26T21:32:22.839Z,-0.30
2023-04-26T21:37:26.213Z,-0.32
2023-04-26T21:42:28.161Z,-0.27
2023-04-26T21:47:30.436Z,-0.20
2023-04-26T21:52:33.825Z,-0.32
2023-04-26T21:57:36.040Z,-0.34
2023-04-26T22:02:39.008Z,-0.38
2023-04-26T22:07:42.507Z,-0.43
2023-04-26T22:12:44.493Z,-0.43
2023-04-26T22:17:46.517Z,-0.43
2023-04-26T22:22:49.985Z,-0.40
2023-04-26T22:27:52.176Z,-0.45
2023-04-26T22:32:57.201Z,-0.49
2023-04-26T22:38:00.638Z,-0.47
2023-04-26T22:43:02.818Z,-0.44
2023-04-26T22:48:04.881Z,-0.44
2023-04-26T22:53:08.288Z,-0.43
2023-04-26T22:58:11.319Z,-0.42
2023-04-26T23:03:13.453Z,-0.44
2023-04-26T23:08:17.004Z,-0.44
2023-04-26T23:13:19.445Z,-0.46
2023-04-26T23:18:21.711Z,-0.54
2023-04-26T23:23:25.049Z,-0.63
2023-04-26T23:28:26.995Z,-0.54
2023-04-26T23:33:28.952Z,-0.58
2023-04-26T23:38:32.233Z,-0.60
2023-04-26T23:43:34.281Z,-0.60
2023-04-26T23:48:36.516Z,-0.52
2023-04-26T23:53:39.836Z,-0.56
2023-04-26T23:58:41.872Z,-0.52
